<?xml version="1.0" encoding="UTF-8" standalone="no" ?>
<gpx xmlns="http://www.topografix.com/GPX/1/1" xmlns:xsi="http://www.w3.org/2001/XMLSchema-instance" xsi:schemaLocation="http://www.topografix.com/GPX/1/1 http://www.topografix.com/GPX/1/1/gpx.xsd" version="1.1" creator="VisuGPX - https://www.visugpx.com">
  <metadata>
    <name>VTT Bulle</name>
    <desc><![CDATA[petite balade de reprise autour de Bulle]]></desc>
  </metadata>
  <trk>
    <name><![CDATA[VTT autour de Bulle 14.05.2015]]></name>
    <trkseg>
      <trkpt lat="46.89679" lon="6.22767">
        <ele>846.74</ele>
        <time>2015-05-14T06:28:20Z</time>
      </trkpt>
      <trkpt lat="46.89679" lon="6.22768">
        <ele>846.74</ele>
        <time>2015-05-14T06:28:21Z</time>
      </trkpt>
      <trkpt lat="46.89677" lon="6.2277">
        <ele>846.8</ele>
        <time>2015-05-14T06:28:25Z</time>
      </trkpt>
      <trkpt lat="46.89661" lon="6.22742">
        <ele>846.98</ele>
        <time>2015-05-14T06:28:35Z</time>
      </trkpt>
      <trkpt lat="46.89645" lon="6.22761">
        <ele>845.96</ele>
        <time>2015-05-14T06:28:39Z</time>
      </trkpt>
      <trkpt lat="46.89631" lon="6.22779">
        <ele>845.36</ele>
        <time>2015-05-14T06:28:42Z</time>
      </trkpt>
      <trkpt lat="46.89615" lon="6.22783">
        <ele>843.73</ele>
        <time>2015-05-14T06:28:46Z</time>
      </trkpt>
      <trkpt lat="46.89589" lon="6.22759">
        <ele>839.63</ele>
        <time>2015-05-14T06:28:52Z</time>
      </trkpt>
      <trkpt lat="46.89579" lon="6.22739">
        <ele>838.23</ele>
        <time>2015-05-14T06:28:55Z</time>
      </trkpt>
      <trkpt lat="46.89538" lon="6.2266">
        <ele>834.9</ele>
        <time>2015-05-14T06:29:05Z</time>
      </trkpt>
      <trkpt lat="46.8951" lon="6.22595">
        <ele>831.48</ele>
        <time>2015-05-14T06:29:12Z</time>
      </trkpt>
      <trkpt lat="46.89474" lon="6.2251">
        <ele>828.74</ele>
        <time>2015-05-14T06:29:21Z</time>
      </trkpt>
      <trkpt lat="46.89465" lon="6.22492">
        <ele>830.16</ele>
        <time>2015-05-14T06:29:24Z</time>
      </trkpt>
      <trkpt lat="46.89428" lon="6.22402">
        <ele>828.71</ele>
        <time>2015-05-14T06:29:37Z</time>
      </trkpt>
      <trkpt lat="46.89409" lon="6.22374">
        <ele>828.58</ele>
        <time>2015-05-14T06:29:42Z</time>
      </trkpt>
      <trkpt lat="46.894" lon="6.22357">
        <ele>829.55</ele>
        <time>2015-05-14T06:29:45Z</time>
      </trkpt>
      <trkpt lat="46.89392" lon="6.22338">
        <ele>828.68</ele>
        <time>2015-05-14T06:29:48Z</time>
      </trkpt>
      <trkpt lat="46.89383" lon="6.22312">
        <ele>826.75</ele>
        <time>2015-05-14T06:29:52Z</time>
      </trkpt>
      <trkpt lat="46.89379" lon="6.22303">
        <ele>827.01</ele>
        <time>2015-05-14T06:29:54Z</time>
      </trkpt>
      <trkpt lat="46.89366" lon="6.2227">
        <ele>825.51</ele>
        <time>2015-05-14T06:30:04Z</time>
      </trkpt>
      <trkpt lat="46.89365" lon="6.22269">
        <ele>825.63</ele>
        <time>2015-05-14T06:30:06Z</time>
      </trkpt>
      <trkpt lat="46.8937" lon="6.22282">
        <ele>825.89</ele>
        <time>2015-05-14T06:30:12Z</time>
      </trkpt>
      <trkpt lat="46.89376" lon="6.22282">
        <ele>825.93</ele>
        <time>2015-05-14T06:30:16Z</time>
      </trkpt>
      <trkpt lat="46.89383" lon="6.22273">
        <ele>826.25</ele>
        <time>2015-05-14T06:30:22Z</time>
      </trkpt>
      <trkpt lat="46.89415" lon="6.2224">
        <ele>824.29</ele>
        <time>2015-05-14T06:30:37Z</time>
      </trkpt>
      <trkpt lat="46.89447" lon="6.22207">
        <ele>821.39</ele>
        <time>2015-05-14T06:30:46Z</time>
      </trkpt>
      <trkpt lat="46.89468" lon="6.22192">
        <ele>820.71</ele>
        <time>2015-05-14T06:30:51Z</time>
      </trkpt>
      <trkpt lat="46.89494" lon="6.22157">
        <ele>820.16</ele>
        <time>2015-05-14T06:31:00Z</time>
      </trkpt>
      <trkpt lat="46.895" lon="6.2212">
        <ele>820.15</ele>
        <time>2015-05-14T06:31:06Z</time>
      </trkpt>
      <trkpt lat="46.89488" lon="6.22021">
        <ele>821.22</ele>
        <time>2015-05-14T06:31:21Z</time>
      </trkpt>
      <trkpt lat="46.89485" lon="6.22004">
        <ele>821.95</ele>
        <time>2015-05-14T06:31:24Z</time>
      </trkpt>
      <trkpt lat="46.89482" lon="6.21986">
        <ele>821.92</ele>
        <time>2015-05-14T06:31:27Z</time>
      </trkpt>
      <trkpt lat="46.8946" lon="6.21881">
        <ele>820.73</ele>
        <time>2015-05-14T06:31:43Z</time>
      </trkpt>
      <trkpt lat="46.89419" lon="6.21757">
        <ele>818.78</ele>
        <time>2015-05-14T06:32:01Z</time>
      </trkpt>
      <trkpt lat="46.89438" lon="6.21659">
        <ele>818.29</ele>
        <time>2015-05-14T06:32:17Z</time>
      </trkpt>
      <trkpt lat="46.89454" lon="6.2164">
        <ele>818.05</ele>
        <time>2015-05-14T06:32:22Z</time>
      </trkpt>
      <trkpt lat="46.89503" lon="6.21611">
        <ele>819.94</ele>
        <time>2015-05-14T06:32:35Z</time>
      </trkpt>
      <trkpt lat="46.89578" lon="6.21562">
        <ele>819.31</ele>
        <time>2015-05-14T06:32:54Z</time>
      </trkpt>
      <trkpt lat="46.89623" lon="6.21494">
        <ele>819.98</ele>
        <time>2015-05-14T06:33:11Z</time>
      </trkpt>
      <trkpt lat="46.89633" lon="6.21467">
        <ele>820.1</ele>
        <time>2015-05-14T06:33:17Z</time>
      </trkpt>
      <trkpt lat="46.89629" lon="6.21445">
        <ele>819.97</ele>
        <time>2015-05-14T06:33:21Z</time>
      </trkpt>
      <trkpt lat="46.896" lon="6.21331">
        <ele>819.75</ele>
        <time>2015-05-14T06:33:39Z</time>
      </trkpt>
      <trkpt lat="46.89596" lon="6.213">
        <ele>819.65</ele>
        <time>2015-05-14T06:33:44Z</time>
      </trkpt>
      <trkpt lat="46.89605" lon="6.21183">
        <ele>820.36</ele>
        <time>2015-05-14T06:34:03Z</time>
      </trkpt>
      <trkpt lat="46.89614" lon="6.21063">
        <ele>821.43</ele>
        <time>2015-05-14T06:34:23Z</time>
      </trkpt>
      <trkpt lat="46.89609" lon="6.20924">
        <ele>822.72</ele>
        <time>2015-05-14T06:34:47Z</time>
      </trkpt>
      <trkpt lat="46.89618" lon="6.20827">
        <ele>825.71</ele>
        <time>2015-05-14T06:35:08Z</time>
      </trkpt>
      <trkpt lat="46.89636" lon="6.20738">
        <ele>827.52</ele>
        <time>2015-05-14T06:35:26Z</time>
      </trkpt>
      <trkpt lat="46.89669" lon="6.20631">
        <ele>827.81</ele>
        <time>2015-05-14T06:35:46Z</time>
      </trkpt>
      <trkpt lat="46.89717" lon="6.20502">
        <ele>830.31</ele>
        <time>2015-05-14T06:36:13Z</time>
      </trkpt>
      <trkpt lat="46.8976" lon="6.20396">
        <ele>832.78</ele>
        <time>2015-05-14T06:36:37Z</time>
      </trkpt>
      <trkpt lat="46.8979" lon="6.20326">
        <ele>835.84</ele>
        <time>2015-05-14T06:36:55Z</time>
      </trkpt>
      <trkpt lat="46.89819" lon="6.20275">
        <ele>837.95</ele>
        <time>2015-05-14T06:37:10Z</time>
      </trkpt>
      <trkpt lat="46.89858" lon="6.20203">
        <ele>838.76</ele>
        <time>2015-05-14T06:37:28Z</time>
      </trkpt>
      <trkpt lat="46.89893" lon="6.20112">
        <ele>840.42</ele>
        <time>2015-05-14T06:37:49Z</time>
      </trkpt>
      <trkpt lat="46.89916" lon="6.20046">
        <ele>843.49</ele>
        <time>2015-05-14T06:38:06Z</time>
      </trkpt>
      <trkpt lat="46.89949" lon="6.19984">
        <ele>845.67</ele>
        <time>2015-05-14T06:38:26Z</time>
      </trkpt>
      <trkpt lat="46.89994" lon="6.19932">
        <ele>848.73</ele>
        <time>2015-05-14T06:38:47Z</time>
      </trkpt>
      <trkpt lat="46.90043" lon="6.19905">
        <ele>851.75</ele>
        <time>2015-05-14T06:39:06Z</time>
      </trkpt>
      <trkpt lat="46.90069" lon="6.19861">
        <ele>854.62</ele>
        <time>2015-05-14T06:39:22Z</time>
      </trkpt>
      <trkpt lat="46.90098" lon="6.19805">
        <ele>857.74</ele>
        <time>2015-05-14T06:39:42Z</time>
      </trkpt>
      <trkpt lat="46.90135" lon="6.19757">
        <ele>858.6</ele>
        <time>2015-05-14T06:40:00Z</time>
      </trkpt>
      <trkpt lat="46.90175" lon="6.19709">
        <ele>859.01</ele>
        <time>2015-05-14T06:40:16Z</time>
      </trkpt>
      <trkpt lat="46.9022" lon="6.19679">
        <ele>858.17</ele>
        <time>2015-05-14T06:40:30Z</time>
      </trkpt>
      <trkpt lat="46.90286" lon="6.19627">
        <ele>857.27</ele>
        <time>2015-05-14T06:40:48Z</time>
      </trkpt>
      <trkpt lat="46.90328" lon="6.19573">
        <ele>860.28</ele>
        <time>2015-05-14T06:41:05Z</time>
      </trkpt>
      <trkpt lat="46.90331" lon="6.19509">
        <ele>861.79</ele>
        <time>2015-05-14T06:41:18Z</time>
      </trkpt>
      <trkpt lat="46.90326" lon="6.19425">
        <ele>862.08</ele>
        <time>2015-05-14T06:41:34Z</time>
      </trkpt>
      <trkpt lat="46.90345" lon="6.19367">
        <ele>862.75</ele>
        <time>2015-05-14T06:41:47Z</time>
      </trkpt>
      <trkpt lat="46.90376" lon="6.19311">
        <ele>862.4</ele>
        <time>2015-05-14T06:42:00Z</time>
      </trkpt>
      <trkpt lat="46.90413" lon="6.19255">
        <ele>862.82</ele>
        <time>2015-05-14T06:42:14Z</time>
      </trkpt>
      <trkpt lat="46.90414" lon="6.19234">
        <ele>862.72</ele>
        <time>2015-05-14T06:42:17Z</time>
      </trkpt>
      <trkpt lat="46.90408" lon="6.19178">
        <ele>861.15</ele>
        <time>2015-05-14T06:42:23Z</time>
      </trkpt>
      <trkpt lat="46.90368" lon="6.19102">
        <ele>857.27</ele>
        <time>2015-05-14T06:42:34Z</time>
      </trkpt>
      <trkpt lat="46.90341" lon="6.19063">
        <ele>855.35</ele>
        <time>2015-05-14T06:42:41Z</time>
      </trkpt>
      <trkpt lat="46.90288" lon="6.18988">
        <ele>853.95</ele>
        <time>2015-05-14T06:42:55Z</time>
      </trkpt>
      <trkpt lat="46.90236" lon="6.18905">
        <ele>851.92</ele>
        <time>2015-05-14T06:43:10Z</time>
      </trkpt>
      <trkpt lat="46.90233" lon="6.189">
        <ele>851.86</ele>
        <time>2015-05-14T06:43:11Z</time>
      </trkpt>
      <trkpt lat="46.90226" lon="6.18866">
        <ele>852.97</ele>
        <time>2015-05-14T06:43:17Z</time>
      </trkpt>
      <trkpt lat="46.90227" lon="6.1886">
        <ele>852.99</ele>
        <time>2015-05-14T06:43:18Z</time>
      </trkpt>
      <trkpt lat="46.9026" lon="6.18775">
        <ele>852.96</ele>
        <time>2015-05-14T06:43:35Z</time>
      </trkpt>
      <trkpt lat="46.90296" lon="6.18665">
        <ele>852.44</ele>
        <time>2015-05-14T06:43:55Z</time>
      </trkpt>
      <trkpt lat="46.90299" lon="6.18655">
        <ele>852.45</ele>
        <time>2015-05-14T06:43:57Z</time>
      </trkpt>
      <trkpt lat="46.90325" lon="6.18562">
        <ele>850.22</ele>
        <time>2015-05-14T06:44:12Z</time>
      </trkpt>
      <trkpt lat="46.90351" lon="6.18491">
        <ele>850.38</ele>
        <time>2015-05-14T06:44:27Z</time>
      </trkpt>
      <trkpt lat="46.9037" lon="6.18449">
        <ele>851.43</ele>
        <time>2015-05-14T06:44:41Z</time>
      </trkpt>
      <trkpt lat="46.90388" lon="6.18392">
        <ele>852.6</ele>
        <time>2015-05-14T06:44:56Z</time>
      </trkpt>
      <trkpt lat="46.9041" lon="6.1834">
        <ele>852.92</ele>
        <time>2015-05-14T06:45:11Z</time>
      </trkpt>
      <trkpt lat="46.90415" lon="6.18305">
        <ele>854.12</ele>
        <time>2015-05-14T06:45:23Z</time>
      </trkpt>
      <trkpt lat="46.90416" lon="6.18286">
        <ele>853.99</ele>
        <time>2015-05-14T06:45:38Z</time>
      </trkpt>
      <trkpt lat="46.90418" lon="6.1825">
        <ele>854.27</ele>
        <time>2015-05-14T06:45:50Z</time>
      </trkpt>
      <trkpt lat="46.90413" lon="6.18206">
        <ele>855.41</ele>
        <time>2015-05-14T06:46:03Z</time>
      </trkpt>
      <trkpt lat="46.90417" lon="6.18163">
        <ele>856.84</ele>
        <time>2015-05-14T06:46:16Z</time>
      </trkpt>
      <trkpt lat="46.90432" lon="6.18116">
        <ele>856.96</ele>
        <time>2015-05-14T06:46:31Z</time>
      </trkpt>
      <trkpt lat="46.90451" lon="6.18067">
        <ele>856.45</ele>
        <time>2015-05-14T06:46:44Z</time>
      </trkpt>
      <trkpt lat="46.90468" lon="6.18022">
        <ele>856.17</ele>
        <time>2015-05-14T06:46:56Z</time>
      </trkpt>
      <trkpt lat="46.90485" lon="6.17981">
        <ele>854.82</ele>
        <time>2015-05-14T06:47:10Z</time>
      </trkpt>
      <trkpt lat="46.90493" lon="6.17942">
        <ele>852.95</ele>
        <time>2015-05-14T06:47:24Z</time>
      </trkpt>
      <trkpt lat="46.90508" lon="6.17905">
        <ele>852.55</ele>
        <time>2015-05-14T06:47:38Z</time>
      </trkpt>
      <trkpt lat="46.90514" lon="6.17886">
        <ele>852.56</ele>
        <time>2015-05-14T06:47:44Z</time>
      </trkpt>
      <trkpt lat="46.90517" lon="6.1786">
        <ele>851.95</ele>
        <time>2015-05-14T06:47:56Z</time>
      </trkpt>
      <trkpt lat="46.90519" lon="6.17852">
        <ele>851.97</ele>
        <time>2015-05-14T06:48:02Z</time>
      </trkpt>
      <trkpt lat="46.90523" lon="6.17832">
        <ele>851.85</ele>
        <time>2015-05-14T06:48:17Z</time>
      </trkpt>
      <trkpt lat="46.90537" lon="6.17792">
        <ele>852.26</ele>
        <time>2015-05-14T06:48:32Z</time>
      </trkpt>
      <trkpt lat="46.90542" lon="6.17769">
        <ele>852.61</ele>
        <time>2015-05-14T06:48:45Z</time>
      </trkpt>
      <trkpt lat="46.90545" lon="6.17748">
        <ele>852.82</ele>
        <time>2015-05-14T06:49:01Z</time>
      </trkpt>
      <trkpt lat="46.90555" lon="6.17711">
        <ele>854.44</ele>
        <time>2015-05-14T06:49:14Z</time>
      </trkpt>
      <trkpt lat="46.9056" lon="6.17679">
        <ele>855.21</ele>
        <time>2015-05-14T06:49:25Z</time>
      </trkpt>
      <trkpt lat="46.90566" lon="6.17655">
        <ele>855.57</ele>
        <time>2015-05-14T06:49:36Z</time>
      </trkpt>
      <trkpt lat="46.90567" lon="6.17646">
        <ele>855.97</ele>
        <time>2015-05-14T06:49:39Z</time>
      </trkpt>
      <trkpt lat="46.90575" lon="6.17633">
        <ele>856.76</ele>
        <time>2015-05-14T06:49:45Z</time>
      </trkpt>
      <trkpt lat="46.90588" lon="6.17599">
        <ele>857.74</ele>
        <time>2015-05-14T06:50:00Z</time>
      </trkpt>
      <trkpt lat="46.90603" lon="6.1756">
        <ele>857.69</ele>
        <time>2015-05-14T06:50:14Z</time>
      </trkpt>
      <trkpt lat="46.90613" lon="6.17519">
        <ele>857.12</ele>
        <time>2015-05-14T06:50:28Z</time>
      </trkpt>
      <trkpt lat="46.90619" lon="6.1747">
        <ele>856.9</ele>
        <time>2015-05-14T06:50:42Z</time>
      </trkpt>
      <trkpt lat="46.90626" lon="6.17424">
        <ele>858.03</ele>
        <time>2015-05-14T06:50:56Z</time>
      </trkpt>
      <trkpt lat="46.90633" lon="6.17382">
        <ele>859.39</ele>
        <time>2015-05-14T06:51:11Z</time>
      </trkpt>
      <trkpt lat="46.90638" lon="6.17364">
        <ele>859.99</ele>
        <time>2015-05-14T06:51:19Z</time>
      </trkpt>
      <trkpt lat="46.90648" lon="6.17334">
        <ele>861.45</ele>
        <time>2015-05-14T06:51:32Z</time>
      </trkpt>
      <trkpt lat="46.9066" lon="6.17292">
        <ele>864.39</ele>
        <time>2015-05-14T06:51:50Z</time>
      </trkpt>
      <trkpt lat="46.90665" lon="6.17265">
        <ele>866.09</ele>
        <time>2015-05-14T06:52:02Z</time>
      </trkpt>
      <trkpt lat="46.90674" lon="6.17232">
        <ele>866.88</ele>
        <time>2015-05-14T06:52:16Z</time>
      </trkpt>
      <trkpt lat="46.90685" lon="6.17198">
        <ele>868.42</ele>
        <time>2015-05-14T06:52:31Z</time>
      </trkpt>
      <trkpt lat="46.90689" lon="6.17178">
        <ele>869.05</ele>
        <time>2015-05-14T06:52:40Z</time>
      </trkpt>
      <trkpt lat="46.90691" lon="6.17176">
        <ele>869.07</ele>
        <time>2015-05-14T06:52:42Z</time>
      </trkpt>
      <trkpt lat="46.90689" lon="6.17173">
        <ele>869.36</ele>
        <time>2015-05-14T06:52:47Z</time>
      </trkpt>
      <trkpt lat="46.90691" lon="6.17164">
        <ele>869.4</ele>
        <time>2015-05-14T06:52:56Z</time>
      </trkpt>
      <trkpt lat="46.90693" lon="6.1716">
        <ele>869.39</ele>
        <time>2015-05-14T06:52:58Z</time>
      </trkpt>
      <trkpt lat="46.90702" lon="6.17147">
        <ele>869.92</ele>
        <time>2015-05-14T06:53:10Z</time>
      </trkpt>
      <trkpt lat="46.90703" lon="6.17147">
        <ele>869.81</ele>
        <time>2015-05-14T06:53:36Z</time>
      </trkpt>
      <trkpt lat="46.90703" lon="6.17148">
        <ele>870.09</ele>
        <time>2015-05-14T06:54:04Z</time>
      </trkpt>
      <trkpt lat="46.90705" lon="6.17142">
        <ele>870.01</ele>
        <time>2015-05-14T06:54:10Z</time>
      </trkpt>
      <trkpt lat="46.90718" lon="6.17104">
        <ele>870.58</ele>
        <time>2015-05-14T06:54:27Z</time>
      </trkpt>
      <trkpt lat="46.90733" lon="6.17071">
        <ele>871.37</ele>
        <time>2015-05-14T06:54:40Z</time>
      </trkpt>
      <trkpt lat="46.9075" lon="6.17025">
        <ele>872.38</ele>
        <time>2015-05-14T06:54:54Z</time>
      </trkpt>
      <trkpt lat="46.9076" lon="6.1697">
        <ele>873.25</ele>
        <time>2015-05-14T06:55:09Z</time>
      </trkpt>
      <trkpt lat="46.90766" lon="6.16903">
        <ele>873.7</ele>
        <time>2015-05-14T06:55:26Z</time>
      </trkpt>
      <trkpt lat="46.90763" lon="6.16829">
        <ele>871.37</ele>
        <time>2015-05-14T06:55:40Z</time>
      </trkpt>
      <trkpt lat="46.90763" lon="6.16813">
        <ele>870.21</ele>
        <time>2015-05-14T06:55:42Z</time>
      </trkpt>
      <trkpt lat="46.90772" lon="6.16767">
        <ele>867.05</ele>
        <time>2015-05-14T06:55:48Z</time>
      </trkpt>
      <trkpt lat="46.90793" lon="6.16725">
        <ele>863.28</ele>
        <time>2015-05-14T06:55:53Z</time>
      </trkpt>
      <trkpt lat="46.90801" lon="6.16704">
        <ele>861.92</ele>
        <time>2015-05-14T06:55:55Z</time>
      </trkpt>
      <trkpt lat="46.90807" lon="6.16685">
        <ele>860.57</ele>
        <time>2015-05-14T06:55:57Z</time>
      </trkpt>
      <trkpt lat="46.9083" lon="6.1664">
        <ele>856.96</ele>
        <time>2015-05-14T06:56:04Z</time>
      </trkpt>
      <trkpt lat="46.90848" lon="6.16624">
        <ele>854.51</ele>
        <time>2015-05-14T06:56:07Z</time>
      </trkpt>
      <trkpt lat="46.90868" lon="6.16586">
        <ele>850.23</ele>
        <time>2015-05-14T06:56:12Z</time>
      </trkpt>
      <trkpt lat="46.90871" lon="6.16567">
        <ele>849.43</ele>
        <time>2015-05-14T06:56:14Z</time>
      </trkpt>
      <trkpt lat="46.90869" lon="6.16496">
        <ele>847.41</ele>
        <time>2015-05-14T06:56:21Z</time>
      </trkpt>
      <trkpt lat="46.90867" lon="6.16422">
        <ele>844.41</ele>
        <time>2015-05-14T06:56:28Z</time>
      </trkpt>
      <trkpt lat="46.90862" lon="6.16348">
        <ele>844.61</ele>
        <time>2015-05-14T06:56:36Z</time>
      </trkpt>
      <trkpt lat="46.90841" lon="6.16226">
        <ele>842.59</ele>
        <time>2015-05-14T06:56:49Z</time>
      </trkpt>
      <trkpt lat="46.90841" lon="6.16207">
        <ele>843.32</ele>
        <time>2015-05-14T06:56:57Z</time>
      </trkpt>
      <trkpt lat="46.90839" lon="6.16205">
        <ele>843.19</ele>
        <time>2015-05-14T06:56:59Z</time>
      </trkpt>
      <trkpt lat="46.90818" lon="6.16196">
        <ele>844.6</ele>
        <time>2015-05-14T06:57:14Z</time>
      </trkpt>
      <trkpt lat="46.90799" lon="6.16173">
        <ele>846.44</ele>
        <time>2015-05-14T06:57:26Z</time>
      </trkpt>
      <trkpt lat="46.90768" lon="6.16158">
        <ele>848.92</ele>
        <time>2015-05-14T06:57:43Z</time>
      </trkpt>
      <trkpt lat="46.90735" lon="6.16161">
        <ele>848.66</ele>
        <time>2015-05-14T06:57:57Z</time>
      </trkpt>
      <trkpt lat="46.90705" lon="6.16201">
        <ele>848.45</ele>
        <time>2015-05-14T06:58:10Z</time>
      </trkpt>
      <trkpt lat="46.90674" lon="6.16255">
        <ele>849.85</ele>
        <time>2015-05-14T06:58:25Z</time>
      </trkpt>
      <trkpt lat="46.90651" lon="6.16291">
        <ele>852.59</ele>
        <time>2015-05-14T06:58:39Z</time>
      </trkpt>
      <trkpt lat="46.90636" lon="6.16324">
        <ele>855.45</ele>
        <time>2015-05-14T06:58:54Z</time>
      </trkpt>
      <trkpt lat="46.90633" lon="6.16335">
        <ele>856.12</ele>
        <time>2015-05-14T06:58:59Z</time>
      </trkpt>
      <trkpt lat="46.90625" lon="6.16358">
        <ele>857.58</ele>
        <time>2015-05-14T06:59:14Z</time>
      </trkpt>
      <trkpt lat="46.90624" lon="6.16359">
        <ele>857.6</ele>
        <time>2015-05-14T06:59:15Z</time>
      </trkpt>
      <trkpt lat="46.90621" lon="6.1637">
        <ele>858.61</ele>
        <time>2015-05-14T06:59:22Z</time>
      </trkpt>
      <trkpt lat="46.9061" lon="6.16393">
        <ele>861.37</ele>
        <time>2015-05-14T06:59:38Z</time>
      </trkpt>
      <trkpt lat="46.90603" lon="6.16411">
        <ele>864.15</ele>
        <time>2015-05-14T06:59:53Z</time>
      </trkpt>
      <trkpt lat="46.90597" lon="6.16422">
        <ele>866.14</ele>
        <time>2015-05-14T07:00:07Z</time>
      </trkpt>
      <trkpt lat="46.90586" lon="6.16433">
        <ele>867.59</ele>
        <time>2015-05-14T07:00:21Z</time>
      </trkpt>
      <trkpt lat="46.90573" lon="6.16447">
        <ele>869.29</ele>
        <time>2015-05-14T07:00:35Z</time>
      </trkpt>
      <trkpt lat="46.90554" lon="6.16467">
        <ele>871.83</ele>
        <time>2015-05-14T07:01:01Z</time>
      </trkpt>
      <trkpt lat="46.90533" lon="6.16489">
        <ele>873.47</ele>
        <time>2015-05-14T07:01:19Z</time>
      </trkpt>
      <trkpt lat="46.90511" lon="6.16493">
        <ele>875.97</ele>
        <time>2015-05-14T07:01:34Z</time>
      </trkpt>
      <trkpt lat="46.90489" lon="6.16506">
        <ele>878.44</ele>
        <time>2015-05-14T07:01:51Z</time>
      </trkpt>
      <trkpt lat="46.90471" lon="6.16527">
        <ele>879.39</ele>
        <time>2015-05-14T07:02:05Z</time>
      </trkpt>
      <trkpt lat="46.90469" lon="6.16535">
        <ele>879.57</ele>
        <time>2015-05-14T07:02:09Z</time>
      </trkpt>
      <trkpt lat="46.90456" lon="6.16567">
        <ele>879.9</ele>
        <time>2015-05-14T07:02:23Z</time>
      </trkpt>
      <trkpt lat="46.90446" lon="6.16592">
        <ele>879.52</ele>
        <time>2015-05-14T07:02:35Z</time>
      </trkpt>
      <trkpt lat="46.90424" lon="6.16616">
        <ele>879.04</ele>
        <time>2015-05-14T07:02:48Z</time>
      </trkpt>
      <trkpt lat="46.90418" lon="6.16621">
        <ele>878.88</ele>
        <time>2015-05-14T07:02:51Z</time>
      </trkpt>
      <trkpt lat="46.90404" lon="6.16659">
        <ele>878.69</ele>
        <time>2015-05-14T07:03:05Z</time>
      </trkpt>
      <trkpt lat="46.90382" lon="6.16699">
        <ele>878.48</ele>
        <time>2015-05-14T07:03:20Z</time>
      </trkpt>
      <trkpt lat="46.9035" lon="6.16742">
        <ele>877.37</ele>
        <time>2015-05-14T07:03:32Z</time>
      </trkpt>
      <trkpt lat="46.90332" lon="6.16758">
        <ele>875.92</ele>
        <time>2015-05-14T07:03:42Z</time>
      </trkpt>
      <trkpt lat="46.90298" lon="6.16772">
        <ele>873.58</ele>
        <time>2015-05-14T07:03:57Z</time>
      </trkpt>
      <trkpt lat="46.90287" lon="6.16773">
        <ele>872.12</ele>
        <time>2015-05-14T07:04:01Z</time>
      </trkpt>
      <trkpt lat="46.90275" lon="6.16774">
        <ele>871.51</ele>
        <time>2015-05-14T07:04:04Z</time>
      </trkpt>
      <trkpt lat="46.90246" lon="6.16798">
        <ele>869.77</ele>
        <time>2015-05-14T07:04:09Z</time>
      </trkpt>
      <trkpt lat="46.90191" lon="6.16857">
        <ele>868.44</ele>
        <time>2015-05-14T07:04:20Z</time>
      </trkpt>
      <trkpt lat="46.90175" lon="6.16876">
        <ele>867.65</ele>
        <time>2015-05-14T07:04:24Z</time>
      </trkpt>
      <trkpt lat="46.90157" lon="6.16894">
        <ele>867.1</ele>
        <time>2015-05-14T07:04:28Z</time>
      </trkpt>
      <trkpt lat="46.90148" lon="6.16903">
        <ele>866.83</ele>
        <time>2015-05-14T07:04:30Z</time>
      </trkpt>
      <trkpt lat="46.90119" lon="6.16941">
        <ele>865.31</ele>
        <time>2015-05-14T07:04:37Z</time>
      </trkpt>
      <trkpt lat="46.90086" lon="6.16965">
        <ele>863.71</ele>
        <time>2015-05-14T07:04:43Z</time>
      </trkpt>
      <trkpt lat="46.90063" lon="6.16964">
        <ele>861.87</ele>
        <time>2015-05-14T07:04:47Z</time>
      </trkpt>
      <trkpt lat="46.90052" lon="6.16959">
        <ele>860.89</ele>
        <time>2015-05-14T07:04:49Z</time>
      </trkpt>
      <trkpt lat="46.90031" lon="6.16945">
        <ele>857.19</ele>
        <time>2015-05-14T07:04:53Z</time>
      </trkpt>
      <trkpt lat="46.90008" lon="6.16936">
        <ele>855.19</ele>
        <time>2015-05-14T07:04:57Z</time>
      </trkpt>
      <trkpt lat="46.89926" lon="6.16957">
        <ele>852.67</ele>
        <time>2015-05-14T07:05:10Z</time>
      </trkpt>
      <trkpt lat="46.89921" lon="6.16962">
        <ele>852.55</ele>
        <time>2015-05-14T07:05:11Z</time>
      </trkpt>
      <trkpt lat="46.89905" lon="6.16999">
        <ele>851.61</ele>
        <time>2015-05-14T07:05:16Z</time>
      </trkpt>
      <trkpt lat="46.89866" lon="6.17102">
        <ele>849.89</ele>
        <time>2015-05-14T07:05:29Z</time>
      </trkpt>
      <trkpt lat="46.89834" lon="6.17162">
        <ele>848.63</ele>
        <time>2015-05-14T07:05:38Z</time>
      </trkpt>
      <trkpt lat="46.89824" lon="6.17189">
        <ele>848.27</ele>
        <time>2015-05-14T07:05:42Z</time>
      </trkpt>
      <trkpt lat="46.8982" lon="6.1721">
        <ele>848.42</ele>
        <time>2015-05-14T07:05:45Z</time>
      </trkpt>
      <trkpt lat="46.89823" lon="6.17245">
        <ele>846.76</ele>
        <time>2015-05-14T07:05:49Z</time>
      </trkpt>
      <trkpt lat="46.89828" lon="6.17324">
        <ele>842.26</ele>
        <time>2015-05-14T07:05:56Z</time>
      </trkpt>
      <trkpt lat="46.89833" lon="6.17388">
        <ele>838.85</ele>
        <time>2015-05-14T07:06:01Z</time>
      </trkpt>
      <trkpt lat="46.89839" lon="6.17442">
        <ele>835.79</ele>
        <time>2015-05-14T07:06:05Z</time>
      </trkpt>
      <trkpt lat="46.89844" lon="6.17466">
        <ele>835.14</ele>
        <time>2015-05-14T07:06:07Z</time>
      </trkpt>
      <trkpt lat="46.89851" lon="6.17486">
        <ele>835.89</ele>
        <time>2015-05-14T07:06:09Z</time>
      </trkpt>
      <trkpt lat="46.89866" lon="6.17515">
        <ele>838.22</ele>
        <time>2015-05-14T07:06:17Z</time>
      </trkpt>
      <trkpt lat="46.89896" lon="6.17514">
        <ele>838.6</ele>
        <time>2015-05-14T07:06:30Z</time>
      </trkpt>
      <trkpt lat="46.89931" lon="6.17507">
        <ele>839.86</ele>
        <time>2015-05-14T07:06:46Z</time>
      </trkpt>
      <trkpt lat="46.89954" lon="6.175">
        <ele>841.36</ele>
        <time>2015-05-14T07:06:59Z</time>
      </trkpt>
      <trkpt lat="46.89977" lon="6.17492">
        <ele>843.88</ele>
        <time>2015-05-14T07:07:13Z</time>
      </trkpt>
      <trkpt lat="46.90002" lon="6.17486">
        <ele>846.33</ele>
        <time>2015-05-14T07:07:28Z</time>
      </trkpt>
      <trkpt lat="46.90027" lon="6.17484">
        <ele>848.37</ele>
        <time>2015-05-14T07:07:43Z</time>
      </trkpt>
      <trkpt lat="46.90056" lon="6.17491">
        <ele>850.25</ele>
        <time>2015-05-14T07:08:00Z</time>
      </trkpt>
      <trkpt lat="46.90075" lon="6.17498">
        <ele>852.32</ele>
        <time>2015-05-14T07:08:14Z</time>
      </trkpt>
      <trkpt lat="46.90096" lon="6.17506">
        <ele>854.08</ele>
        <time>2015-05-14T07:08:29Z</time>
      </trkpt>
      <trkpt lat="46.90122" lon="6.17523">
        <ele>855.68</ele>
        <time>2015-05-14T07:08:45Z</time>
      </trkpt>
      <trkpt lat="46.90144" lon="6.17535">
        <ele>856.25</ele>
        <time>2015-05-14T07:08:59Z</time>
      </trkpt>
      <trkpt lat="46.90169" lon="6.17554">
        <ele>856.49</ele>
        <time>2015-05-14T07:09:13Z</time>
      </trkpt>
      <trkpt lat="46.90197" lon="6.17579">
        <ele>857.3</ele>
        <time>2015-05-14T07:09:29Z</time>
      </trkpt>
      <trkpt lat="46.90216" lon="6.17602">
        <ele>858.3</ele>
        <time>2015-05-14T07:09:42Z</time>
      </trkpt>
      <trkpt lat="46.90229" lon="6.1764">
        <ele>857.38</ele>
        <time>2015-05-14T07:09:57Z</time>
      </trkpt>
      <trkpt lat="46.90225" lon="6.17674">
        <ele>855.82</ele>
        <time>2015-05-14T07:10:06Z</time>
      </trkpt>
      <trkpt lat="46.90217" lon="6.17732">
        <ele>854.17</ele>
        <time>2015-05-14T07:10:21Z</time>
      </trkpt>
      <trkpt lat="46.90214" lon="6.17774">
        <ele>850.89</ele>
        <time>2015-05-14T07:10:31Z</time>
      </trkpt>
      <trkpt lat="46.90224" lon="6.17814">
        <ele>847.86</ele>
        <time>2015-05-14T07:10:42Z</time>
      </trkpt>
      <trkpt lat="46.9023" lon="6.17844">
        <ele>846.23</ele>
        <time>2015-05-14T07:10:54Z</time>
      </trkpt>
      <trkpt lat="46.90232" lon="6.17846">
        <ele>845.94</ele>
        <time>2015-05-14T07:10:57Z</time>
      </trkpt>
      <trkpt lat="46.90236" lon="6.17856">
        <ele>845.78</ele>
        <time>2015-05-14T07:11:14Z</time>
      </trkpt>
      <trkpt lat="46.90235" lon="6.17856">
        <ele>846.08</ele>
        <time>2015-05-14T07:11:31Z</time>
      </trkpt>
      <trkpt lat="46.9024" lon="6.17857">
        <ele>845.89</ele>
        <time>2015-05-14T07:11:46Z</time>
      </trkpt>
      <trkpt lat="46.90232" lon="6.17858">
        <ele>845.78</ele>
        <time>2015-05-14T07:12:02Z</time>
      </trkpt>
      <trkpt lat="46.90232" lon="6.17862">
        <ele>845.9</ele>
        <time>2015-05-14T07:12:09Z</time>
      </trkpt>
      <trkpt lat="46.9024" lon="6.17863">
        <ele>845.89</ele>
        <time>2015-05-14T07:12:15Z</time>
      </trkpt>
      <trkpt lat="46.90241" lon="6.17863">
        <ele>845.84</ele>
        <time>2015-05-14T07:12:16Z</time>
      </trkpt>
      <trkpt lat="46.90245" lon="6.17863">
        <ele>845.57</ele>
        <time>2015-05-14T07:12:23Z</time>
      </trkpt>
      <trkpt lat="46.90246" lon="6.17869">
        <ele>845.67</ele>
        <time>2015-05-14T07:12:26Z</time>
      </trkpt>
      <trkpt lat="46.90244" lon="6.17905">
        <ele>843.75</ele>
        <time>2015-05-14T07:12:40Z</time>
      </trkpt>
      <trkpt lat="46.90243" lon="6.17908">
        <ele>843.59</ele>
        <time>2015-05-14T07:12:42Z</time>
      </trkpt>
      <trkpt lat="46.90238" lon="6.17944">
        <ele>842.91</ele>
        <time>2015-05-14T07:12:55Z</time>
      </trkpt>
      <trkpt lat="46.90238" lon="6.17987">
        <ele>842.36</ele>
        <time>2015-05-14T07:13:08Z</time>
      </trkpt>
      <trkpt lat="46.90253" lon="6.18024">
        <ele>842.56</ele>
        <time>2015-05-14T07:13:22Z</time>
      </trkpt>
      <trkpt lat="46.90251" lon="6.18026">
        <ele>842.51</ele>
        <time>2015-05-14T07:13:33Z</time>
      </trkpt>
      <trkpt lat="46.90251" lon="6.18028">
        <ele>842.53</ele>
        <time>2015-05-14T07:13:38Z</time>
      </trkpt>
      <trkpt lat="46.90242" lon="6.18055">
        <ele>842.79</ele>
        <time>2015-05-14T07:13:49Z</time>
      </trkpt>
      <trkpt lat="46.90234" lon="6.1807">
        <ele>842.62</ele>
        <time>2015-05-14T07:14:04Z</time>
      </trkpt>
      <trkpt lat="46.90222" lon="6.18102">
        <ele>842.51</ele>
        <time>2015-05-14T07:14:16Z</time>
      </trkpt>
      <trkpt lat="46.90212" lon="6.18152">
        <ele>842.76</ele>
        <time>2015-05-14T07:14:30Z</time>
      </trkpt>
      <trkpt lat="46.90204" lon="6.18213">
        <ele>842.6</ele>
        <time>2015-05-14T07:14:46Z</time>
      </trkpt>
      <trkpt lat="46.90194" lon="6.18276">
        <ele>841.01</ele>
        <time>2015-05-14T07:14:59Z</time>
      </trkpt>
      <trkpt lat="46.90183" lon="6.18338">
        <ele>840</ele>
        <time>2015-05-14T07:15:11Z</time>
      </trkpt>
      <trkpt lat="46.90173" lon="6.18414">
        <ele>838.91</ele>
        <time>2015-05-14T07:15:28Z</time>
      </trkpt>
      <trkpt lat="46.90168" lon="6.18469">
        <ele>836.75</ele>
        <time>2015-05-14T07:15:42Z</time>
      </trkpt>
      <trkpt lat="46.90157" lon="6.18529">
        <ele>834.73</ele>
        <time>2015-05-14T07:15:57Z</time>
      </trkpt>
      <trkpt lat="46.90146" lon="6.18584">
        <ele>833.84</ele>
        <time>2015-05-14T07:16:11Z</time>
      </trkpt>
      <trkpt lat="46.90123" lon="6.18639">
        <ele>834.04</ele>
        <time>2015-05-14T07:16:27Z</time>
      </trkpt>
      <trkpt lat="46.90104" lon="6.1868">
        <ele>834.02</ele>
        <time>2015-05-14T07:16:40Z</time>
      </trkpt>
      <trkpt lat="46.90088" lon="6.18723">
        <ele>834.17</ele>
        <time>2015-05-14T07:16:52Z</time>
      </trkpt>
      <trkpt lat="46.90066" lon="6.18765">
        <ele>834.9</ele>
        <time>2015-05-14T07:17:05Z</time>
      </trkpt>
      <trkpt lat="46.9005" lon="6.18804">
        <ele>834.49</ele>
        <time>2015-05-14T07:17:17Z</time>
      </trkpt>
      <trkpt lat="46.90045" lon="6.18833">
        <ele>835.54</ele>
        <time>2015-05-14T07:17:28Z</time>
      </trkpt>
      <trkpt lat="46.90027" lon="6.18868">
        <ele>835.37</ele>
        <time>2015-05-14T07:17:42Z</time>
      </trkpt>
      <trkpt lat="46.90004" lon="6.18917">
        <ele>835.83</ele>
        <time>2015-05-14T07:17:58Z</time>
      </trkpt>
      <trkpt lat="46.89982" lon="6.18966">
        <ele>838.27</ele>
        <time>2015-05-14T07:18:16Z</time>
      </trkpt>
      <trkpt lat="46.89966" lon="6.19006">
        <ele>840.98</ele>
        <time>2015-05-14T07:18:31Z</time>
      </trkpt>
      <trkpt lat="46.89951" lon="6.1905">
        <ele>841.83</ele>
        <time>2015-05-14T07:18:46Z</time>
      </trkpt>
      <trkpt lat="46.89924" lon="6.1912">
        <ele>843.01</ele>
        <time>2015-05-14T07:19:07Z</time>
      </trkpt>
      <trkpt lat="46.89898" lon="6.19173">
        <ele>844.8</ele>
        <time>2015-05-14T07:19:26Z</time>
      </trkpt>
      <trkpt lat="46.89876" lon="6.19208">
        <ele>845.87</ele>
        <time>2015-05-14T07:19:41Z</time>
      </trkpt>
      <trkpt lat="46.8985" lon="6.19244">
        <ele>847.92</ele>
        <time>2015-05-14T07:19:58Z</time>
      </trkpt>
      <trkpt lat="46.8983" lon="6.19277">
        <ele>849.86</ele>
        <time>2015-05-14T07:20:14Z</time>
      </trkpt>
      <trkpt lat="46.89819" lon="6.19291">
        <ele>850.65</ele>
        <time>2015-05-14T07:20:22Z</time>
      </trkpt>
      <trkpt lat="46.89813" lon="6.19302">
        <ele>851.04</ele>
        <time>2015-05-14T07:20:27Z</time>
      </trkpt>
      <trkpt lat="46.89783" lon="6.19343">
        <ele>854.05</ele>
        <time>2015-05-14T07:20:48Z</time>
      </trkpt>
      <trkpt lat="46.89757" lon="6.19369">
        <ele>855.91</ele>
        <time>2015-05-14T07:21:04Z</time>
      </trkpt>
      <trkpt lat="46.89727" lon="6.19407">
        <ele>857.29</ele>
        <time>2015-05-14T07:21:21Z</time>
      </trkpt>
      <trkpt lat="46.89695" lon="6.19441">
        <ele>857.74</ele>
        <time>2015-05-14T07:21:37Z</time>
      </trkpt>
      <trkpt lat="46.89656" lon="6.19478">
        <ele>859.07</ele>
        <time>2015-05-14T07:21:56Z</time>
      </trkpt>
      <trkpt lat="46.89619" lon="6.195">
        <ele>860.02</ele>
        <time>2015-05-14T07:22:10Z</time>
      </trkpt>
      <trkpt lat="46.89609" lon="6.19504">
        <ele>860.87</ele>
        <time>2015-05-14T07:22:16Z</time>
      </trkpt>
      <trkpt lat="46.89607" lon="6.19503">
        <ele>859.94</ele>
        <time>2015-05-14T07:22:32Z</time>
      </trkpt>
      <trkpt lat="46.89608" lon="6.19502">
        <ele>859.81</ele>
        <time>2015-05-14T07:23:04Z</time>
      </trkpt>
      <trkpt lat="46.89598" lon="6.19506">
        <ele>860.25</ele>
        <time>2015-05-14T07:23:34Z</time>
      </trkpt>
      <trkpt lat="46.89551" lon="6.19518">
        <ele>860.91</ele>
        <time>2015-05-14T07:23:49Z</time>
      </trkpt>
      <trkpt lat="46.89496" lon="6.19534">
        <ele>862.97</ele>
        <time>2015-05-14T07:24:08Z</time>
      </trkpt>
      <trkpt lat="46.89471" lon="6.1954">
        <ele>864.12</ele>
        <time>2015-05-14T07:24:22Z</time>
      </trkpt>
      <trkpt lat="46.8947" lon="6.19541">
        <ele>862.92</ele>
        <time>2015-05-14T07:24:43Z</time>
      </trkpt>
      <trkpt lat="46.89458" lon="6.19544">
        <ele>863.15</ele>
        <time>2015-05-14T07:25:09Z</time>
      </trkpt>
      <trkpt lat="46.89423" lon="6.19562">
        <ele>863.7</ele>
        <time>2015-05-14T07:25:21Z</time>
      </trkpt>
      <trkpt lat="46.89388" lon="6.19576">
        <ele>860.25</ele>
        <time>2015-05-14T07:25:28Z</time>
      </trkpt>
      <trkpt lat="46.89376" lon="6.19581">
        <ele>856.68</ele>
        <time>2015-05-14T07:25:30Z</time>
      </trkpt>
      <trkpt lat="46.89343" lon="6.19597">
        <ele>852.94</ele>
        <time>2015-05-14T07:25:35Z</time>
      </trkpt>
      <trkpt lat="46.89329" lon="6.19604">
        <ele>852.07</ele>
        <time>2015-05-14T07:25:37Z</time>
      </trkpt>
      <trkpt lat="46.89284" lon="6.19625">
        <ele>848.79</ele>
        <time>2015-05-14T07:25:43Z</time>
      </trkpt>
      <trkpt lat="46.89254" lon="6.1964">
        <ele>845.31</ele>
        <time>2015-05-14T07:25:47Z</time>
      </trkpt>
      <trkpt lat="46.89221" lon="6.19657">
        <ele>842.15</ele>
        <time>2015-05-14T07:25:51Z</time>
      </trkpt>
      <trkpt lat="46.89213" lon="6.19661">
        <ele>841.89</ele>
        <time>2015-05-14T07:25:52Z</time>
      </trkpt>
      <trkpt lat="46.89173" lon="6.19679">
        <ele>838.29</ele>
        <time>2015-05-14T07:25:57Z</time>
      </trkpt>
      <trkpt lat="46.89165" lon="6.19683">
        <ele>838.19</ele>
        <time>2015-05-14T07:25:58Z</time>
      </trkpt>
      <trkpt lat="46.89082" lon="6.1971">
        <ele>837.01</ele>
        <time>2015-05-14T07:26:11Z</time>
      </trkpt>
      <trkpt lat="46.88998" lon="6.19732">
        <ele>837.04</ele>
        <time>2015-05-14T07:26:27Z</time>
      </trkpt>
      <trkpt lat="46.88971" lon="6.19741">
        <ele>836.27</ele>
        <time>2015-05-14T07:26:33Z</time>
      </trkpt>
      <trkpt lat="46.88953" lon="6.19735">
        <ele>835.88</ele>
        <time>2015-05-14T07:26:37Z</time>
      </trkpt>
      <trkpt lat="46.88912" lon="6.19673">
        <ele>836.03</ele>
        <time>2015-05-14T07:26:52Z</time>
      </trkpt>
      <trkpt lat="46.88884" lon="6.19615">
        <ele>839.09</ele>
        <time>2015-05-14T07:27:07Z</time>
      </trkpt>
      <trkpt lat="46.8886" lon="6.19596">
        <ele>839.37</ele>
        <time>2015-05-14T07:27:18Z</time>
      </trkpt>
      <trkpt lat="46.88868" lon="6.19566">
        <ele>838.4</ele>
        <time>2015-05-14T07:27:28Z</time>
      </trkpt>
      <trkpt lat="46.88898" lon="6.19523">
        <ele>839.41</ele>
        <time>2015-05-14T07:27:44Z</time>
      </trkpt>
      <trkpt lat="46.88927" lon="6.19481">
        <ele>842.55</ele>
        <time>2015-05-14T07:28:01Z</time>
      </trkpt>
      <trkpt lat="46.88957" lon="6.19439">
        <ele>845.62</ele>
        <time>2015-05-14T07:28:20Z</time>
      </trkpt>
      <trkpt lat="46.88978" lon="6.19401">
        <ele>848.33</ele>
        <time>2015-05-14T07:28:36Z</time>
      </trkpt>
      <trkpt lat="46.88999" lon="6.19351">
        <ele>850.19</ele>
        <time>2015-05-14T07:28:55Z</time>
      </trkpt>
      <trkpt lat="46.89025" lon="6.193">
        <ele>851.24</ele>
        <time>2015-05-14T07:29:14Z</time>
      </trkpt>
      <trkpt lat="46.89065" lon="6.19247">
        <ele>851.99</ele>
        <time>2015-05-14T07:29:33Z</time>
      </trkpt>
      <trkpt lat="46.89093" lon="6.19211">
        <ele>850.74</ele>
        <time>2015-05-14T07:29:42Z</time>
      </trkpt>
      <trkpt lat="46.89138" lon="6.19172">
        <ele>852.37</ele>
        <time>2015-05-14T07:29:57Z</time>
      </trkpt>
      <trkpt lat="46.8918" lon="6.19135">
        <ele>854.68</ele>
        <time>2015-05-14T07:30:13Z</time>
      </trkpt>
      <trkpt lat="46.89226" lon="6.19082">
        <ele>856.45</ele>
        <time>2015-05-14T07:30:32Z</time>
      </trkpt>
      <trkpt lat="46.89268" lon="6.19022">
        <ele>858.11</ele>
        <time>2015-05-14T07:30:50Z</time>
      </trkpt>
      <trkpt lat="46.89315" lon="6.18953">
        <ele>856.16</ele>
        <time>2015-05-14T07:31:06Z</time>
      </trkpt>
      <trkpt lat="46.89365" lon="6.18886">
        <ele>858.12</ele>
        <time>2015-05-14T07:31:22Z</time>
      </trkpt>
      <trkpt lat="46.89411" lon="6.1882">
        <ele>859.18</ele>
        <time>2015-05-14T07:31:39Z</time>
      </trkpt>
      <trkpt lat="46.89424" lon="6.18803">
        <ele>858.27</ele>
        <time>2015-05-14T07:31:43Z</time>
      </trkpt>
      <trkpt lat="46.89458" lon="6.1876">
        <ele>859.41</ele>
        <time>2015-05-14T07:31:54Z</time>
      </trkpt>
      <trkpt lat="46.89469" lon="6.18742">
        <ele>859.13</ele>
        <time>2015-05-14T07:31:58Z</time>
      </trkpt>
      <trkpt lat="46.89498" lon="6.18668">
        <ele>857.27</ele>
        <time>2015-05-14T07:32:11Z</time>
      </trkpt>
      <trkpt lat="46.89523" lon="6.18606">
        <ele>854.48</ele>
        <time>2015-05-14T07:32:20Z</time>
      </trkpt>
      <trkpt lat="46.89566" lon="6.18543">
        <ele>852.68</ele>
        <time>2015-05-14T07:32:31Z</time>
      </trkpt>
      <trkpt lat="46.89615" lon="6.18497">
        <ele>854.51</ele>
        <time>2015-05-14T07:32:41Z</time>
      </trkpt>
      <trkpt lat="46.89678" lon="6.18447">
        <ele>857.27</ele>
        <time>2015-05-14T07:32:57Z</time>
      </trkpt>
      <trkpt lat="46.89728" lon="6.18397">
        <ele>856.37</ele>
        <time>2015-05-14T07:33:10Z</time>
      </trkpt>
      <trkpt lat="46.89738" lon="6.18376">
        <ele>856.19</ele>
        <time>2015-05-14T07:33:14Z</time>
      </trkpt>
      <trkpt lat="46.89734" lon="6.18329">
        <ele>856.02</ele>
        <time>2015-05-14T07:33:20Z</time>
      </trkpt>
      <trkpt lat="46.89722" lon="6.18273">
        <ele>851.67</ele>
        <time>2015-05-14T07:33:26Z</time>
      </trkpt>
      <trkpt lat="46.89701" lon="6.18156">
        <ele>848.79</ele>
        <time>2015-05-14T07:33:40Z</time>
      </trkpt>
      <trkpt lat="46.89679" lon="6.18063">
        <ele>848.28</ele>
        <time>2015-05-14T07:33:53Z</time>
      </trkpt>
      <trkpt lat="46.89667" lon="6.17965">
        <ele>845.14</ele>
        <time>2015-05-14T07:34:05Z</time>
      </trkpt>
      <trkpt lat="46.89677" lon="6.17864">
        <ele>844.29</ele>
        <time>2015-05-14T07:34:17Z</time>
      </trkpt>
      <trkpt lat="46.89679" lon="6.17857">
        <ele>843.96</ele>
        <time>2015-05-14T07:34:18Z</time>
      </trkpt>
      <trkpt lat="46.89685" lon="6.17737">
        <ele>842.46</ele>
        <time>2015-05-14T07:34:33Z</time>
      </trkpt>
      <trkpt lat="46.89686" lon="6.17729">
        <ele>842.13</ele>
        <time>2015-05-14T07:34:34Z</time>
      </trkpt>
      <trkpt lat="46.89692" lon="6.17714">
        <ele>841.11</ele>
        <time>2015-05-14T07:34:36Z</time>
      </trkpt>
      <trkpt lat="46.89748" lon="6.17643">
        <ele>840.42</ele>
        <time>2015-05-14T07:34:48Z</time>
      </trkpt>
      <trkpt lat="46.8976" lon="6.17625">
        <ele>841.36</ele>
        <time>2015-05-14T07:34:52Z</time>
      </trkpt>
      <trkpt lat="46.89825" lon="6.17549">
        <ele>838.74</ele>
        <time>2015-05-14T07:35:07Z</time>
      </trkpt>
      <trkpt lat="46.89862" lon="6.1752">
        <ele>836.68</ele>
        <time>2015-05-14T07:35:17Z</time>
      </trkpt>
      <trkpt lat="46.89865" lon="6.1752">
        <ele>836.54</ele>
        <time>2015-05-14T07:35:24Z</time>
      </trkpt>
      <trkpt lat="46.89875" lon="6.17571">
        <ele>834.48</ele>
        <time>2015-05-14T07:35:34Z</time>
      </trkpt>
      <trkpt lat="46.89886" lon="6.1764">
        <ele>831.97</ele>
        <time>2015-05-14T07:35:45Z</time>
      </trkpt>
      <trkpt lat="46.89881" lon="6.17706">
        <ele>830.47</ele>
        <time>2015-05-14T07:35:58Z</time>
      </trkpt>
      <trkpt lat="46.89878" lon="6.17758">
        <ele>830.07</ele>
        <time>2015-05-14T07:36:10Z</time>
      </trkpt>
      <trkpt lat="46.8988" lon="6.17813">
        <ele>830.16</ele>
        <time>2015-05-14T07:36:22Z</time>
      </trkpt>
      <trkpt lat="46.89883" lon="6.17858">
        <ele>831.24</ele>
        <time>2015-05-14T07:36:34Z</time>
      </trkpt>
      <trkpt lat="46.8989" lon="6.17917">
        <ele>832.35</ele>
        <time>2015-05-14T07:36:49Z</time>
      </trkpt>
      <trkpt lat="46.89893" lon="6.17936">
        <ele>832.1</ele>
        <time>2015-05-14T07:37:00Z</time>
      </trkpt>
      <trkpt lat="46.89899" lon="6.17975">
        <ele>831.43</ele>
        <time>2015-05-14T07:37:11Z</time>
      </trkpt>
      <trkpt lat="46.89908" lon="6.18016">
        <ele>830.84</ele>
        <time>2015-05-14T07:37:23Z</time>
      </trkpt>
      <trkpt lat="46.89933" lon="6.1807">
        <ele>829.85</ele>
        <time>2015-05-14T07:37:36Z</time>
      </trkpt>
      <trkpt lat="46.89956" lon="6.18116">
        <ele>829.72</ele>
        <time>2015-05-14T07:37:49Z</time>
      </trkpt>
      <trkpt lat="46.8997" lon="6.18163">
        <ele>828.16</ele>
        <time>2015-05-14T07:38:01Z</time>
      </trkpt>
      <trkpt lat="46.89984" lon="6.18208">
        <ele>825.46</ele>
        <time>2015-05-14T07:38:12Z</time>
      </trkpt>
      <trkpt lat="46.90019" lon="6.18245">
        <ele>827.46</ele>
        <time>2015-05-14T07:38:28Z</time>
      </trkpt>
      <trkpt lat="46.9004" lon="6.18305">
        <ele>827.43</ele>
        <time>2015-05-14T07:38:44Z</time>
      </trkpt>
      <trkpt lat="46.90046" lon="6.18358">
        <ele>827.67</ele>
        <time>2015-05-14T07:38:57Z</time>
      </trkpt>
      <trkpt lat="46.90044" lon="6.1841">
        <ele>828</ele>
        <time>2015-05-14T07:39:09Z</time>
      </trkpt>
      <trkpt lat="46.90037" lon="6.1847">
        <ele>828.75</ele>
        <time>2015-05-14T07:39:23Z</time>
      </trkpt>
      <trkpt lat="46.90032" lon="6.18546">
        <ele>829.03</ele>
        <time>2015-05-14T07:39:40Z</time>
      </trkpt>
      <trkpt lat="46.90034" lon="6.18636">
        <ele>825.71</ele>
        <time>2015-05-14T07:39:53Z</time>
      </trkpt>
      <trkpt lat="46.90037" lon="6.18702">
        <ele>826.56</ele>
        <time>2015-05-14T07:40:05Z</time>
      </trkpt>
      <trkpt lat="46.90037" lon="6.18759">
        <ele>829.22</ele>
        <time>2015-05-14T07:40:19Z</time>
      </trkpt>
      <trkpt lat="46.90042" lon="6.18806">
        <ele>831.33</ele>
        <time>2015-05-14T07:40:32Z</time>
      </trkpt>
      <trkpt lat="46.90044" lon="6.18828">
        <ele>833.14</ele>
        <time>2015-05-14T07:40:44Z</time>
      </trkpt>
      <trkpt lat="46.90045" lon="6.1883">
        <ele>832.96</ele>
        <time>2015-05-14T07:41:08Z</time>
      </trkpt>
      <trkpt lat="46.90045" lon="6.18831">
        <ele>833.51</ele>
        <time>2015-05-14T07:41:40Z</time>
      </trkpt>
      <trkpt lat="46.90046" lon="6.18832">
        <ele>833.23</ele>
        <time>2015-05-14T07:42:08Z</time>
      </trkpt>
      <trkpt lat="46.90046" lon="6.18832">
        <ele>833.71</ele>
        <time>2015-05-14T07:42:40Z</time>
      </trkpt>
      <trkpt lat="46.90046" lon="6.18832">
        <ele>833.44</ele>
        <time>2015-05-14T07:43:20Z</time>
      </trkpt>
      <trkpt lat="46.90041" lon="6.18828">
        <ele>833.06</ele>
        <time>2015-05-14T07:43:51Z</time>
      </trkpt>
      <trkpt lat="46.90043" lon="6.18829">
        <ele>832.94</ele>
        <time>2015-05-14T07:44:19Z</time>
      </trkpt>
      <trkpt lat="46.90045" lon="6.1883">
        <ele>833.38</ele>
        <time>2015-05-14T07:44:53Z</time>
      </trkpt>
      <trkpt lat="46.90049" lon="6.18832">
        <ele>833.52</ele>
        <time>2015-05-14T07:45:06Z</time>
      </trkpt>
      <trkpt lat="46.90065" lon="6.18828">
        <ele>834.76</ele>
        <time>2015-05-14T07:45:17Z</time>
      </trkpt>
      <trkpt lat="46.90092" lon="6.18811">
        <ele>836.56</ele>
        <time>2015-05-14T07:45:34Z</time>
      </trkpt>
      <trkpt lat="46.90119" lon="6.18797">
        <ele>839.13</ele>
        <time>2015-05-14T07:45:51Z</time>
      </trkpt>
      <trkpt lat="46.90148" lon="6.18779">
        <ele>841.38</ele>
        <time>2015-05-14T07:46:09Z</time>
      </trkpt>
      <trkpt lat="46.90174" lon="6.18767">
        <ele>843.2</ele>
        <time>2015-05-14T07:46:25Z</time>
      </trkpt>
      <trkpt lat="46.90188" lon="6.18783">
        <ele>844.18</ele>
        <time>2015-05-14T07:46:36Z</time>
      </trkpt>
      <trkpt lat="46.90203" lon="6.18814">
        <ele>846.3</ele>
        <time>2015-05-14T07:46:53Z</time>
      </trkpt>
      <trkpt lat="46.90213" lon="6.1884">
        <ele>849.39</ele>
        <time>2015-05-14T07:47:07Z</time>
      </trkpt>
      <trkpt lat="46.90226" lon="6.1886">
        <ele>851.08</ele>
        <time>2015-05-14T07:47:21Z</time>
      </trkpt>
      <trkpt lat="46.90224" lon="6.18871">
        <ele>851.56</ele>
        <time>2015-05-14T07:47:27Z</time>
      </trkpt>
      <trkpt lat="46.90228" lon="6.18901">
        <ele>851</ele>
        <time>2015-05-14T07:47:35Z</time>
      </trkpt>
      <trkpt lat="46.90264" lon="6.18958">
        <ele>850.46</ele>
        <time>2015-05-14T07:47:51Z</time>
      </trkpt>
      <trkpt lat="46.90299" lon="6.19012">
        <ele>850.96</ele>
        <time>2015-05-14T07:48:07Z</time>
      </trkpt>
      <trkpt lat="46.90331" lon="6.19059">
        <ele>851.84</ele>
        <time>2015-05-14T07:48:23Z</time>
      </trkpt>
      <trkpt lat="46.90366" lon="6.19106">
        <ele>853.17</ele>
        <time>2015-05-14T07:48:39Z</time>
      </trkpt>
      <trkpt lat="46.90396" lon="6.1915">
        <ele>854.92</ele>
        <time>2015-05-14T07:48:54Z</time>
      </trkpt>
      <trkpt lat="46.90404" lon="6.19202">
        <ele>857.52</ele>
        <time>2015-05-14T07:49:09Z</time>
      </trkpt>
      <trkpt lat="46.904" lon="6.19256">
        <ele>860.28</ele>
        <time>2015-05-14T07:49:25Z</time>
      </trkpt>
      <trkpt lat="46.90372" lon="6.19304">
        <ele>859.59</ele>
        <time>2015-05-14T07:49:40Z</time>
      </trkpt>
      <trkpt lat="46.90342" lon="6.19361">
        <ele>860.08</ele>
        <time>2015-05-14T07:49:54Z</time>
      </trkpt>
      <trkpt lat="46.90321" lon="6.19424">
        <ele>860.57</ele>
        <time>2015-05-14T07:50:07Z</time>
      </trkpt>
      <trkpt lat="46.90319" lon="6.19435">
        <ele>860.17</ele>
        <time>2015-05-14T07:50:09Z</time>
      </trkpt>
      <trkpt lat="46.90328" lon="6.19516">
        <ele>859.38</ele>
        <time>2015-05-14T07:50:22Z</time>
      </trkpt>
      <trkpt lat="46.90329" lon="6.19554">
        <ele>858.97</ele>
        <time>2015-05-14T07:50:28Z</time>
      </trkpt>
      <trkpt lat="46.9031" lon="6.19597">
        <ele>857.5</ele>
        <time>2015-05-14T07:50:35Z</time>
      </trkpt>
      <trkpt lat="46.90239" lon="6.19663">
        <ele>855.89</ele>
        <time>2015-05-14T07:50:49Z</time>
      </trkpt>
      <trkpt lat="46.90178" lon="6.19702">
        <ele>856.56</ele>
        <time>2015-05-14T07:51:04Z</time>
      </trkpt>
      <trkpt lat="46.90133" lon="6.19742">
        <ele>855.94</ele>
        <time>2015-05-14T07:51:17Z</time>
      </trkpt>
      <trkpt lat="46.90094" lon="6.19801">
        <ele>856.38</ele>
        <time>2015-05-14T07:51:31Z</time>
      </trkpt>
      <trkpt lat="46.90091" lon="6.19806">
        <ele>856.12</ele>
        <time>2015-05-14T07:51:32Z</time>
      </trkpt>
      <trkpt lat="46.9006" lon="6.19878">
        <ele>852.71</ele>
        <time>2015-05-14T07:51:44Z</time>
      </trkpt>
      <trkpt lat="46.90057" lon="6.19885">
        <ele>852.02</ele>
        <time>2015-05-14T07:51:45Z</time>
      </trkpt>
      <trkpt lat="46.90049" lon="6.19898">
        <ele>851.38</ele>
        <time>2015-05-14T07:51:47Z</time>
      </trkpt>
      <trkpt lat="46.90032" lon="6.19914">
        <ele>849.42</ele>
        <time>2015-05-14T07:51:50Z</time>
      </trkpt>
      <trkpt lat="46.8999" lon="6.19936">
        <ele>845.19</ele>
        <time>2015-05-14T07:51:56Z</time>
      </trkpt>
      <trkpt lat="46.89964" lon="6.19961">
        <ele>843.6</ele>
        <time>2015-05-14T07:52:00Z</time>
      </trkpt>
      <trkpt lat="46.89941" lon="6.19995">
        <ele>841.93</ele>
        <time>2015-05-14T07:52:04Z</time>
      </trkpt>
      <trkpt lat="46.89921" lon="6.20031">
        <ele>840.56</ele>
        <time>2015-05-14T07:52:08Z</time>
      </trkpt>
      <trkpt lat="46.89889" lon="6.20117">
        <ele>836.98</ele>
        <time>2015-05-14T07:52:16Z</time>
      </trkpt>
      <trkpt lat="46.8988" lon="6.20141">
        <ele>836.25</ele>
        <time>2015-05-14T07:52:18Z</time>
      </trkpt>
      <trkpt lat="46.89809" lon="6.20293">
        <ele>835.05</ele>
        <time>2015-05-14T07:52:33Z</time>
      </trkpt>
      <trkpt lat="46.89763" lon="6.20387">
        <ele>831.66</ele>
        <time>2015-05-14T07:52:43Z</time>
      </trkpt>
      <trkpt lat="46.89727" lon="6.20475">
        <ele>828.46</ele>
        <time>2015-05-14T07:52:51Z</time>
      </trkpt>
      <trkpt lat="46.8967" lon="6.20627">
        <ele>825.08</ele>
        <time>2015-05-14T07:53:05Z</time>
      </trkpt>
      <trkpt lat="46.8963" lon="6.20751">
        <ele>825.07</ele>
        <time>2015-05-14T07:53:17Z</time>
      </trkpt>
      <trkpt lat="46.89609" lon="6.20894">
        <ele>824.24</ele>
        <time>2015-05-14T07:53:31Z</time>
      </trkpt>
      <trkpt lat="46.89607" lon="6.20956">
        <ele>821.61</ele>
        <time>2015-05-14T07:53:36Z</time>
      </trkpt>
      <trkpt lat="46.89613" lon="6.21117">
        <ele>819.51</ele>
        <time>2015-05-14T07:53:50Z</time>
      </trkpt>
      <trkpt lat="46.89595" lon="6.21242">
        <ele>818.27</ele>
        <time>2015-05-14T07:54:02Z</time>
      </trkpt>
      <trkpt lat="46.89593" lon="6.21308">
        <ele>818.16</ele>
        <time>2015-05-14T07:54:08Z</time>
      </trkpt>
      <trkpt lat="46.89628" lon="6.21447">
        <ele>816.13</ele>
        <time>2015-05-14T07:54:23Z</time>
      </trkpt>
      <trkpt lat="46.89632" lon="6.21469">
        <ele>816.47</ele>
        <time>2015-05-14T07:54:27Z</time>
      </trkpt>
      <trkpt lat="46.8964" lon="6.21472">
        <ele>816.76</ele>
        <time>2015-05-14T07:54:33Z</time>
      </trkpt>
      <trkpt lat="46.89691" lon="6.21418">
        <ele>816.58</ele>
        <time>2015-05-14T07:54:50Z</time>
      </trkpt>
      <trkpt lat="46.89757" lon="6.2135">
        <ele>817.62</ele>
        <time>2015-05-14T07:55:08Z</time>
      </trkpt>
      <trkpt lat="46.89816" lon="6.21293">
        <ele>818.98</ele>
        <time>2015-05-14T07:55:26Z</time>
      </trkpt>
      <trkpt lat="46.89872" lon="6.21241">
        <ele>820.28</ele>
        <time>2015-05-14T07:55:43Z</time>
      </trkpt>
      <trkpt lat="46.89922" lon="6.21192">
        <ele>821.41</ele>
        <time>2015-05-14T07:55:59Z</time>
      </trkpt>
      <trkpt lat="46.89973" lon="6.21141">
        <ele>823.87</ele>
        <time>2015-05-14T07:56:16Z</time>
      </trkpt>
      <trkpt lat="46.90008" lon="6.21108">
        <ele>825.71</ele>
        <time>2015-05-14T07:56:29Z</time>
      </trkpt>
      <trkpt lat="46.90018" lon="6.21114">
        <ele>827.14</ele>
        <time>2015-05-14T07:56:33Z</time>
      </trkpt>
      <trkpt lat="46.90044" lon="6.21178">
        <ele>827.46</ele>
        <time>2015-05-14T07:56:49Z</time>
      </trkpt>
      <trkpt lat="46.90078" lon="6.21256">
        <ele>825.72</ele>
        <time>2015-05-14T07:57:02Z</time>
      </trkpt>
      <trkpt lat="46.90117" lon="6.21343">
        <ele>828.22</ele>
        <time>2015-05-14T07:57:19Z</time>
      </trkpt>
      <trkpt lat="46.9015" lon="6.21409">
        <ele>831.27</ele>
        <time>2015-05-14T07:57:36Z</time>
      </trkpt>
      <trkpt lat="46.90174" lon="6.21461">
        <ele>833.19</ele>
        <time>2015-05-14T07:57:51Z</time>
      </trkpt>
      <trkpt lat="46.90196" lon="6.21504">
        <ele>836.26</ele>
        <time>2015-05-14T07:58:05Z</time>
      </trkpt>
      <trkpt lat="46.90229" lon="6.21542">
        <ele>838.42</ele>
        <time>2015-05-14T07:58:21Z</time>
      </trkpt>
      <trkpt lat="46.90271" lon="6.21587">
        <ele>838.76</ele>
        <time>2015-05-14T07:58:37Z</time>
      </trkpt>
      <trkpt lat="46.90301" lon="6.21665">
        <ele>835.9</ele>
        <time>2015-05-14T07:58:51Z</time>
      </trkpt>
      <trkpt lat="46.90324" lon="6.21724">
        <ele>832.55</ele>
        <time>2015-05-14T07:58:58Z</time>
      </trkpt>
      <trkpt lat="46.90338" lon="6.21763">
        <ele>831.15</ele>
        <time>2015-05-14T07:59:04Z</time>
      </trkpt>
      <trkpt lat="46.90327" lon="6.21784">
        <ele>830.64</ele>
        <time>2015-05-14T07:59:09Z</time>
      </trkpt>
      <trkpt lat="46.90268" lon="6.21832">
        <ele>832.2</ele>
        <time>2015-05-14T07:59:25Z</time>
      </trkpt>
      <trkpt lat="46.90248" lon="6.21853">
        <ele>832.89</ele>
        <time>2015-05-14T07:59:32Z</time>
      </trkpt>
      <trkpt lat="46.90242" lon="6.21862">
        <ele>832.67</ele>
        <time>2015-05-14T07:59:34Z</time>
      </trkpt>
      <trkpt lat="46.90174" lon="6.21921">
        <ele>830</ele>
        <time>2015-05-14T07:59:47Z</time>
      </trkpt>
      <trkpt lat="46.901" lon="6.21986">
        <ele>828.19</ele>
        <time>2015-05-14T08:00:02Z</time>
      </trkpt>
      <trkpt lat="46.90026" lon="6.22057">
        <ele>824.95</ele>
        <time>2015-05-14T08:00:15Z</time>
      </trkpt>
      <trkpt lat="46.90007" lon="6.22074">
        <ele>823.41</ele>
        <time>2015-05-14T08:00:18Z</time>
      </trkpt>
      <trkpt lat="46.89928" lon="6.22151">
        <ele>822.49</ele>
        <time>2015-05-14T08:00:33Z</time>
      </trkpt>
      <trkpt lat="46.89833" lon="6.2223">
        <ele>821.24</ele>
        <time>2015-05-14T08:00:51Z</time>
      </trkpt>
      <trkpt lat="46.89754" lon="6.22293">
        <ele>820.64</ele>
        <time>2015-05-14T08:01:06Z</time>
      </trkpt>
      <trkpt lat="46.89666" lon="6.22351">
        <ele>821.3</ele>
        <time>2015-05-14T08:01:24Z</time>
      </trkpt>
      <trkpt lat="46.89644" lon="6.22362">
        <ele>820.9</ele>
        <time>2015-05-14T08:01:31Z</time>
      </trkpt>
      <trkpt lat="46.89646" lon="6.22374">
        <ele>821.08</ele>
        <time>2015-05-14T08:01:36Z</time>
      </trkpt>
      <trkpt lat="46.89693" lon="6.22403">
        <ele>822.12</ele>
        <time>2015-05-14T08:01:49Z</time>
      </trkpt>
      <trkpt lat="46.89769" lon="6.2241">
        <ele>822.19</ele>
        <time>2015-05-14T08:02:05Z</time>
      </trkpt>
      <trkpt lat="46.89813" lon="6.22433">
        <ele>823.06</ele>
        <time>2015-05-14T08:02:15Z</time>
      </trkpt>
      <trkpt lat="46.89863" lon="6.22503">
        <ele>824.85</ele>
        <time>2015-05-14T08:02:32Z</time>
      </trkpt>
      <trkpt lat="46.89892" lon="6.22555">
        <ele>826.52</ele>
        <time>2015-05-14T08:02:47Z</time>
      </trkpt>
      <trkpt lat="46.89915" lon="6.22599">
        <ele>827.62</ele>
        <time>2015-05-14T08:03:03Z</time>
      </trkpt>
      <trkpt lat="46.89937" lon="6.22644">
        <ele>829.28</ele>
        <time>2015-05-14T08:03:19Z</time>
      </trkpt>
      <trkpt lat="46.89963" lon="6.22697">
        <ele>829.87</ele>
        <time>2015-05-14T08:03:37Z</time>
      </trkpt>
      <trkpt lat="46.89984" lon="6.22744">
        <ele>827.94</ele>
        <time>2015-05-14T08:03:52Z</time>
      </trkpt>
      <trkpt lat="46.90008" lon="6.22793">
        <ele>826.73</ele>
        <time>2015-05-14T08:04:07Z</time>
      </trkpt>
      <trkpt lat="46.90019" lon="6.22824">
        <ele>826.07</ele>
        <time>2015-05-14T08:04:18Z</time>
      </trkpt>
      <trkpt lat="46.90007" lon="6.2282">
        <ele>827.76</ele>
        <time>2015-05-14T08:04:25Z</time>
      </trkpt>
      <trkpt lat="46.89971" lon="6.22835">
        <ele>829.14</ele>
        <time>2015-05-14T08:04:40Z</time>
      </trkpt>
      <trkpt lat="46.89933" lon="6.22862">
        <ele>830.35</ele>
        <time>2015-05-14T08:04:56Z</time>
      </trkpt>
      <trkpt lat="46.89892" lon="6.22894">
        <ele>832.75</ele>
        <time>2015-05-14T08:05:14Z</time>
      </trkpt>
      <trkpt lat="46.8985" lon="6.22918">
        <ele>835.56</ele>
        <time>2015-05-14T08:05:31Z</time>
      </trkpt>
      <trkpt lat="46.89807" lon="6.2294">
        <ele>836.25</ele>
        <time>2015-05-14T08:05:46Z</time>
      </trkpt>
      <trkpt lat="46.89762" lon="6.22978">
        <ele>837</ele>
        <time>2015-05-14T08:06:00Z</time>
      </trkpt>
      <trkpt lat="46.89711" lon="6.22968">
        <ele>838.01</ele>
        <time>2015-05-14T08:06:14Z</time>
      </trkpt>
      <trkpt lat="46.8966" lon="6.2292">
        <ele>838.45</ele>
        <time>2015-05-14T08:06:30Z</time>
      </trkpt>
      <trkpt lat="46.89645" lon="6.2288">
        <ele>839.23</ele>
        <time>2015-05-14T08:06:39Z</time>
      </trkpt>
      <trkpt lat="46.89662" lon="6.22843">
        <ele>840.94</ele>
        <time>2015-05-14T08:06:50Z</time>
      </trkpt>
      <trkpt lat="46.89674" lon="6.22797">
        <ele>843.08</ele>
        <time>2015-05-14T08:07:01Z</time>
      </trkpt>
      <trkpt lat="46.8968" lon="6.22772">
        <ele>843.66</ele>
        <time>2015-05-14T08:07:12Z</time>
      </trkpt>
      <trkpt lat="46.89679" lon="6.22768">
        <ele>843.58</ele>
        <time>2015-05-14T08:07:15Z</time>
      </trkpt>
      <trkpt lat="46.89677" lon="6.22766">
        <ele>842.94</ele>
        <time>2015-05-14T08:07:21Z</time>
      </trkpt>
      <trkpt lat="46.89659" lon="6.22775">
        <ele>843.68</ele>
        <time>2015-05-14T09:16:32Z</time>
      </trkpt>
      <trkpt lat="46.89659" lon="6.22775">
        <ele>843.73</ele>
        <time>2015-05-14T09:16:33Z</time>
      </trkpt>
      <trkpt lat="46.89659" lon="6.22775">
        <ele>843.88</ele>
        <time>2015-05-14T09:16:34Z</time>
      </trkpt>
      <trkpt lat="46.89659" lon="6.22775">
        <ele>843.93</ele>
        <time>2015-05-14T09:16:35Z</time>
      </trkpt>
      <trkpt lat="46.89659" lon="6.22775">
        <ele>843.93</ele>
        <time>2015-05-14T09:16:36Z</time>
      </trkpt>
      <trkpt lat="46.89659" lon="6.22775">
        <ele>843.92</ele>
        <time>2015-05-14T09:16:37Z</time>
      </trkpt>
      <trkpt lat="46.89659" lon="6.22775">
        <ele>843.92</ele>
        <time>2015-05-14T09:16:38Z</time>
      </trkpt>
      <trkpt lat="46.89659" lon="6.22775">
        <ele>843.92</ele>
        <time>2015-05-14T09:16:39Z</time>
      </trkpt>
      <trkpt lat="46.89659" lon="6.22775">
        <ele>843.91</ele>
        <time>2015-05-14T09:16:40Z</time>
      </trkpt>
      <trkpt lat="46.89659" lon="6.22775">
        <ele>843.86</ele>
        <time>2015-05-14T09:16:41Z</time>
      </trkpt>
      <trkpt lat="46.89659" lon="6.22775">
        <ele>843.79</ele>
        <time>2015-05-14T09:16:42Z</time>
      </trkpt>
      <trkpt lat="46.89659" lon="6.22775">
        <ele>843.77</ele>
        <time>2015-05-14T09:16:43Z</time>
      </trkpt>
      <trkpt lat="46.89659" lon="6.22775">
        <ele>843.84</ele>
        <time>2015-05-14T09:16:44Z</time>
      </trkpt>
      <trkpt lat="46.89659" lon="6.22775">
        <ele>843.94</ele>
        <time>2015-05-14T09:16:45Z</time>
      </trkpt>
      <trkpt lat="46.89659" lon="6.22775">
        <ele>844.04</ele>
        <time>2015-05-14T09:16:46Z</time>
      </trkpt>
      <trkpt lat="46.89659" lon="6.22775">
        <ele>844.05</ele>
        <time>2015-05-14T09:16:47Z</time>
      </trkpt>
      <trkpt lat="46.89659" lon="6.22775">
        <ele>844.04</ele>
        <time>2015-05-14T09:16:48Z</time>
      </trkpt>
      <trkpt lat="46.89659" lon="6.22775">
        <ele>844.03</ele>
        <time>2015-05-14T09:16:49Z</time>
      </trkpt>
      <trkpt lat="46.89659" lon="6.22775">
        <ele>844.01</ele>
        <time>2015-05-14T09:16:50Z</time>
      </trkpt>
      <trkpt lat="46.89659" lon="6.22775">
        <ele>844.01</ele>
        <time>2015-05-14T09:16:51Z</time>
      </trkpt>
      <trkpt lat="46.89659" lon="6.22775">
        <ele>844.02</ele>
        <time>2015-05-14T09:16:52Z</time>
      </trkpt>
      <trkpt lat="46.89659" lon="6.22775">
        <ele>844.02</ele>
        <time>2015-05-14T09:16:53Z</time>
      </trkpt>
      <trkpt lat="46.89659" lon="6.22775">
        <ele>843.97</ele>
        <time>2015-05-14T09:16:54Z</time>
      </trkpt>
      <trkpt lat="46.89659" lon="6.22775">
        <ele>843.91</ele>
        <time>2015-05-14T09:16:55Z</time>
      </trkpt>
      <trkpt lat="46.89659" lon="6.22775">
        <ele>843.86</ele>
        <time>2015-05-14T09:16:56Z</time>
      </trkpt>
      <trkpt lat="46.89659" lon="6.22775">
        <ele>843.88</ele>
        <time>2015-05-14T09:16:57Z</time>
      </trkpt>
      <trkpt lat="46.89659" lon="6.22775">
        <ele>843.9</ele>
        <time>2015-05-14T09:16:58Z</time>
      </trkpt>
      <trkpt lat="46.89659" lon="6.22775">
        <ele>843.89</ele>
        <time>2015-05-14T09:16:59Z</time>
      </trkpt>
      <trkpt lat="46.89659" lon="6.22775">
        <ele>843.88</ele>
        <time>2015-05-14T09:17:00Z</time>
      </trkpt>
      <trkpt lat="46.89659" lon="6.22775">
        <ele>843.8</ele>
        <time>2015-05-14T09:17:01Z</time>
      </trkpt>
      <trkpt lat="46.89659" lon="6.22775">
        <ele>843.77</ele>
        <time>2015-05-14T09:17:02Z</time>
      </trkpt>
      <trkpt lat="46.89659" lon="6.22775">
        <ele>843.82</ele>
        <time>2015-05-14T09:17:03Z</time>
      </trkpt>
      <trkpt lat="46.89659" lon="6.22775">
        <ele>843.91</ele>
        <time>2015-05-14T09:17:04Z</time>
      </trkpt>
      <trkpt lat="46.89659" lon="6.22775">
        <ele>843.98</ele>
        <time>2015-05-14T09:17:05Z</time>
      </trkpt>
      <trkpt lat="46.89659" lon="6.22775">
        <ele>844.02</ele>
        <time>2015-05-14T09:17:06Z</time>
      </trkpt>
      <trkpt lat="46.89659" lon="6.22775">
        <ele>844.04</ele>
        <time>2015-05-14T09:17:07Z</time>
      </trkpt>
      <trkpt lat="46.89659" lon="6.22775">
        <ele>844.04</ele>
        <time>2015-05-14T09:17:08Z</time>
      </trkpt>
      <trkpt lat="46.89659" lon="6.22775">
        <ele>844.03</ele>
        <time>2015-05-14T09:17:09Z</time>
      </trkpt>
      <trkpt lat="46.89659" lon="6.22775">
        <ele>843.99</ele>
        <time>2015-05-14T09:17:10Z</time>
      </trkpt>
      <trkpt lat="46.89659" lon="6.22775">
        <ele>843.9</ele>
        <time>2015-05-14T09:17:11Z</time>
      </trkpt>
      <trkpt lat="46.89686" lon="6.22706">
        <ele>846.36</ele>
        <time>2015-05-14T09:17:13Z</time>
      </trkpt>
      <trkpt lat="46.89685" lon="6.22707">
        <ele>846.36</ele>
        <time>2015-05-14T09:17:14Z</time>
      </trkpt>
      <trkpt lat="46.89684" lon="6.22707">
        <ele>846.4</ele>
        <time>2015-05-14T09:17:15Z</time>
      </trkpt>
      <trkpt lat="46.89685" lon="6.22707">
        <ele>846.43</ele>
        <time>2015-05-14T09:17:16Z</time>
      </trkpt>
      <trkpt lat="46.89686" lon="6.22706">
        <ele>846.45</ele>
        <time>2015-05-14T09:17:17Z</time>
      </trkpt>
      <trkpt lat="46.89687" lon="6.22704">
        <ele>846.45</ele>
        <time>2015-05-14T09:17:18Z</time>
      </trkpt>
      <trkpt lat="46.89687" lon="6.22703">
        <ele>846.44</ele>
        <time>2015-05-14T09:17:19Z</time>
      </trkpt>
      <trkpt lat="46.89688" lon="6.22701">
        <ele>846.43</ele>
        <time>2015-05-14T09:17:20Z</time>
      </trkpt>
      <trkpt lat="46.89689" lon="6.227">
        <ele>846.45</ele>
        <time>2015-05-14T09:17:21Z</time>
      </trkpt>
      <trkpt lat="46.8969" lon="6.22697">
        <ele>846.53</ele>
        <time>2015-05-14T09:17:22Z</time>
      </trkpt>
      <trkpt lat="46.89692" lon="6.22695">
        <ele>846.56</ele>
        <time>2015-05-14T09:17:23Z</time>
      </trkpt>
      <trkpt lat="46.89693" lon="6.22693">
        <ele>846.55</ele>
        <time>2015-05-14T09:17:24Z</time>
      </trkpt>
      <trkpt lat="46.89694" lon="6.22691">
        <ele>846.55</ele>
        <time>2015-05-14T09:17:25Z</time>
      </trkpt>
      <trkpt lat="46.89693" lon="6.2269">
        <ele>846.58</ele>
        <time>2015-05-14T09:17:26Z</time>
      </trkpt>
      <trkpt lat="46.89692" lon="6.22689">
        <ele>846.67</ele>
        <time>2015-05-14T09:17:27Z</time>
      </trkpt>
      <trkpt lat="46.89692" lon="6.22687">
        <ele>846.73</ele>
        <time>2015-05-14T09:17:28Z</time>
      </trkpt>
      <trkpt lat="46.8969" lon="6.22687">
        <ele>846.8</ele>
        <time>2015-05-14T09:17:29Z</time>
      </trkpt>
      <trkpt lat="46.89687" lon="6.22687">
        <ele>846.83</ele>
        <time>2015-05-14T09:17:30Z</time>
      </trkpt>
      <trkpt lat="46.89685" lon="6.22687">
        <ele>846.82</ele>
        <time>2015-05-14T09:17:31Z</time>
      </trkpt>
      <trkpt lat="46.89683" lon="6.22689">
        <ele>846.81</ele>
        <time>2015-05-14T09:17:32Z</time>
      </trkpt>
      <trkpt lat="46.89681" lon="6.22691">
        <ele>846.78</ele>
        <time>2015-05-14T09:17:33Z</time>
      </trkpt>
      <trkpt lat="46.8968" lon="6.22695">
        <ele>846.77</ele>
        <time>2015-05-14T09:17:34Z</time>
      </trkpt>
      <trkpt lat="46.8968" lon="6.22697">
        <ele>846.77</ele>
        <time>2015-05-14T09:17:35Z</time>
      </trkpt>
      <trkpt lat="46.8968" lon="6.227">
        <ele>846.77</ele>
        <time>2015-05-14T09:17:36Z</time>
      </trkpt>
      <trkpt lat="46.89678" lon="6.22707">
        <ele>846.77</ele>
        <time>2015-05-14T09:17:37Z</time>
      </trkpt>
      <trkpt lat="46.89678" lon="6.22711">
        <ele>846.77</ele>
        <time>2015-05-14T09:17:38Z</time>
      </trkpt>
    </trkseg>
  </trk>
</gpx>